createdAt,value
2023-02-04T00:00:37.628Z,19.00
2023-02-04T00:03:06.793Z,20.13
2023-02-04T00:05:36.326Z,20.20
2023-02-04T00:08:04.765Z,21.60
2023-02-04T00:10:33.282Z,19.93
2023-02-04T00:13:01.875Z,19.33
2023-02-04T00:15:30.048Z,20.57
2023-02-04T00:17:58.180Z,20.50
2023-02-04T00:20:26.264Z,22.97
2023-02-04T00:22:56.505Z,21.20
2023-02-04T00:25:24.556Z,22.80
2023-02-04T00:27:52.743Z,21.87
2023-02-04T00:30:21.282Z,21.70
2023-02-04T00:32:49.617Z,21.67
2023-02-04T00:35:17.803Z,24.07
2023-02-04T00:37:45.843Z,22.90
2023-02-04T00:40:15.638Z,23.50
2023-02-04T00:42:43.754Z,22.87
2023-02-04T00:45:13.674Z,22.40
2023-02-04T00:47:42.359Z,22.40
2023-02-04T00:50:11.020Z,20.43
2023-02-04T00:52:39.092Z,22.30
2023-02-04T00:55:10.354Z,20.60
2023-02-04T00:57:40.070Z,19.77
2023-02-04T01:00:09.018Z,20.00
2023-02-04T01:02:37.200Z,20.23
2023-02-04T01:05:05.488Z,17.70
2023-02-04T01:07:33.589Z,19.20
2023-02-04T01:10:01.889Z,19.03
2023-02-04T01:12:29.920Z,17.53
2023-02-04T01:14:59.742Z,17.17
2023-02-04T01:17:28.026Z,17.43
2023-02-04T01:19:56.061Z,18.80
2023-02-04T01:22:24.107Z,18.63
2023-02-04T01:24:52.202Z,19.70
2023-02-04T01:27:20.230Z,17.10
2023-02-04T01:29:48.279Z,18.43
2023-02-04T01:32:17.711Z,15.90
2023-02-04T01:34:45.750Z,19.20
2023-02-04T01:37:13.805Z,18.57
2023-02-04T01:39:41.832Z,17.77
2023-02-04T01:42:10.061Z,18.98
2023-02-04T01:44:38.142Z,18.57
2023-02-04T01:47:06.239Z,15.40
2023-02-04T01:49:35.775Z,17.42
2023-02-04T01:52:04.703Z,15.57
2023-02-04T01:54:33.345Z,14.20
2023-02-04T01:57:01.538Z,12.43
2023-02-04T01:59:29.686Z,12.02
2023-02-04T02:01:57.719Z,9.60
2023-02-04T02:04:30.689Z,10.50
2023-02-04T02:07:04.190Z,8.80
2023-02-04T02:09:34.037Z,10.00
2023-02-04T02:12:04.121Z,9.57
2023-02-04T02:14:32.279Z,10.20
2023-02-04T02:17:00.527Z,9.13
2023-02-04T02:19:34.725Z,8.40
2023-02-04T02:22:09.763Z,8.27
2023-02-04T02:24:39.174Z,7.57
2023-02-04T02:27:10.124Z,9.63
2023-02-04T02:29:40.304Z,8.53
2023-02-04T02:32:09.529Z,8.63
2023-02-04T02:34:39.362Z,8.60
2023-02-04T02:37:08.956Z,9.03
2023-02-04T02:39:39.986Z,8.95
2023-02-04T02:42:08.439Z,9.30
2023-02-04T02:44:36.600Z,9.43
2023-02-04T02:47:04.733Z,9.80
2023-02-04T02:49:34.983Z,10.15
2023-02-04T02:52:03.206Z,10.35
2023-02-04T02:54:34.133Z,10.52
2023-02-04T02:57:03.616Z,11.53
2023-02-04T02:59:32.013Z,12.77
2023-02-04T03:02:03.596Z,11.50
2023-02-04T03:04:33.397Z,14.10
2023-02-04T03:07:01.768Z,13.10
2023-02-04T03:09:30.789Z,15.30
2023-02-04T03:11:58.853Z,17.30
2023-02-04T03:14:29.054Z,15.83
2023-02-04T03:16:57.531Z,15.27
2023-02-04T03:19:26.841Z,16.80
2023-02-04T03:21:56.659Z,15.80
2023-02-04T03:24:25.098Z,15.67
2023-02-04T03:26:53.462Z,15.03
2023-02-04T03:29:21.572Z,17.03
2023-02-04T03:31:51.123Z,18.27
2023-02-04T03:34:19.279Z,18.70
2023-02-04T03:36:47.332Z,25.70
2023-02-04T03:39:15.434Z,21.83
2023-02-04T03:41:43.431Z,23.43
2023-02-04T03:44:11.622Z,20.53
2023-02-04T03:46:39.650Z,19.83
2023-02-04T03:49:09.086Z,20.50
2023-02-04T03:51:37.178Z,19.67
2023-02-04T03:54:05.401Z,16.97
2023-02-04T03:56:33.408Z,16.80
2023-02-04T03:59:01.532Z,17.20
2023-02-04T04:01:29.597Z,16.70
2023-02-04T04:03:57.702Z,16.40
2023-02-04T04:06:27.197Z,16.48
2023-02-04T04:08:55.242Z,16.98
2023-02-04T04:11:23.449Z,17.00
2023-02-04T04:13:51.797Z,16.43
2023-02-04T04:16:20.809Z,16.40
2023-02-04T04:18:49.280Z,14.45
2023-02-04T04:21:17.330Z,15.55
2023-02-04T04:23:46.738Z,14.17
2023-02-04T04:26:14.833Z,15.30
2023-02-04T04:28:42.861Z,13.70
2023-02-04T04:31:11.134Z,14.77
2023-02-04T04:33:39.884Z,15.43
2023-02-04T04:36:09.015Z,14.00
2023-02-04T04:38:37.057Z,16.37
2023-02-04T04:41:06.641Z,14.27
2023-02-04T04:43:34.697Z,14.30
2023-02-04T04:46:02.738Z,15.40
2023-02-04T04:48:30.835Z,14.25
2023-02-04T04:50:59.365Z,15.50
2023-02-04T04:53:27.511Z,17.30
2023-02-04T04:55:55.743Z,17.67
2023-02-04T04:58:25.203Z,15.50
2023-02-04T05:00:53.302Z,14.05
2023-02-04T05:03:21.434Z,13.60
2023-02-04T05:05:49.464Z,13.50
2023-02-04T05:08:19.140Z,12.63
2023-02-04T05:10:47.277Z,12.60
2023-02-04T05:13:15.381Z,14.43
2023-02-04T05:15:44.755Z,13.77
2023-02-04T05:18:12.871Z,16.50
2023-02-04T05:20:40.895Z,15.70
2023-02-04T05:23:08.977Z,15.43
2023-02-04T05:25:37.008Z,15.60
2023-02-04T05:28:05.908Z,15.93
2023-02-04T05:30:34.295Z,15.10
2023-02-04T05:33:03.976Z,13.02
2023-02-04T05:35:32.007Z,13.18
2023-02-04T05:38:00.174Z,12.10
2023-02-04T05:40:28.306Z,12.07
2023-02-04T05:42:56.400Z,12.73
2023-02-04T05:45:24.456Z,10.40
2023-02-04T05:47:52.661Z,11.00
2023-02-04T05:50:22.170Z,13.30
2023-02-04T05:52:50.387Z,13.67
2023-02-04T05:55:18.602Z,13.43
2023-02-04T05:57:46.713Z,12.73
2023-02-04T06:00:15.601Z,10.50
2023-02-04T06:02:43.626Z,11.52
2023-02-04T06:05:11.681Z,11.03
2023-02-04T06:07:41.095Z,10.10
2023-02-04T06:10:10.722Z,10.83
2023-02-04T06:12:38.918Z,9.67
2023-02-04T06:15:08.231Z,9.55
2023-02-04T06:17:36.246Z,9.65
2023-02-04T06:20:04.515Z,9.43
2023-02-04T06:22:32.581Z,10.23
2023-02-04T06:25:01.991Z,10.43
2023-02-04T06:27:30.023Z,10.70
2023-02-04T06:29:58.431Z,9.50
2023-02-04T06:32:26.442Z,10.70
2023-02-04T06:34:54.516Z,10.37
2023-02-04T06:37:24.302Z,9.57
2023-02-04T06:39:54.489Z,9.93
2023-02-04T06:42:25.258Z,10.00
2023-02-04T06:44:53.329Z,10.30
2023-02-04T06:47:21.720Z,9.20
2023-02-04T06:49:49.846Z,9.60
2023-02-04T06:52:17.873Z,9.77
2023-02-04T06:54:45.913Z,8.37
2023-02-04T06:57:13.967Z,9.60
2023-02-04T06:59:44.036Z,8.70
2023-02-04T07:02:13.206Z,8.63
2023-02-04T07:04:42.095Z,8.67
2023-02-04T07:07:10.188Z,7.50
2023-02-04T07:09:40.606Z,8.40
2023-02-04T07:12:08.801Z,7.60
2023-02-04T07:14:36.858Z,7.70
2023-02-04T07:17:06.228Z,6.23
2023-02-04T07:19:35.263Z,6.93
2023-02-04T07:22:03.330Z,7.00
2023-02-04T07:24:31.587Z,6.10
2023-02-04T07:27:01.681Z,6.73
2023-02-04T07:29:30.589Z,6.13
2023-02-04T07:31:58.717Z,6.47
2023-02-04T07:34:28.348Z,7.83
2023-02-04T07:36:56.453Z,8.60
2023-02-04T07:39:24.613Z,7.67
2023-02-04T07:41:52.646Z,9.20
2023-02-04T07:44:20.729Z,9.70
2023-02-04T07:46:48.751Z,9.20
2023-02-04T07:49:16.839Z,9.33
2023-02-04T07:51:46.249Z,10.27
2023-02-04T07:54:14.429Z,10.37
2023-02-04T07:56:42.467Z,9.80
2023-02-04T07:59:10.550Z,8.70
2023-02-04T08:01:38.600Z,9.27
2023-02-04T08:04:06.824Z,10.30
2023-02-04T08:06:34.865Z,11.27
2023-02-04T08:09:04.302Z,12.13
2023-02-04T08:11:32.370Z,12.10
2023-02-04T08:14:00.486Z,11.00
2023-02-04T08:16:28.598Z,11.87
2023-02-04T08:18:56.670Z,12.80
2023-02-04T08:21:24.694Z,11.37
2023-02-04T08:23:52.800Z,13.60
2023-02-04T08:26:22.182Z,13.70
2023-02-04T08:28:50.225Z,12.97
2023-02-04T08:31:18.327Z,13.37
2023-02-04T08:33:46.493Z,14.83
2023-02-04T08:36:14.540Z,13.37
2023-02-04T08:38:44.603Z,13.87
2023-02-04T08:41:12.986Z,14.87
2023-02-04T08:43:42.555Z,16.97
2023-02-04T08:46:10.822Z,18.50
2023-02-04T08:48:38.921Z,18.63
2023-02-04T08:51:07.276Z,18.90
2023-02-04T08:53:35.329Z,18.73
2023-02-04T08:56:03.367Z,17.53
2023-02-04T08:58:31.481Z,19.80
2023-02-04T09:01:00.917Z,22.00
2023-02-04T09:03:29.244Z,19.60
2023-02-04T09:05:57.274Z,22.90
2023-02-04T09:08:25.371Z,21.07
2023-02-04T09:10:53.411Z,21.67
2023-02-04T09:13:21.514Z,19.70
2023-02-04T09:15:49.577Z,21.20
2023-02-04T09:18:21.946Z,19.30
2023-02-04T09:20:50.667Z,18.53
2023-02-04T09:23:18.807Z,19.10
2023-02-04T09:25:47.547Z,18.53
2023-02-04T09:28:17.179Z,18.70
2023-02-04T09:30:46.879Z,20.20
2023-02-04T09:33:17.636Z,22.70
2023-02-04T09:35:47.086Z,23.80
2023-02-04T09:38:15.321Z,25.17
2023-02-04T09:40:48.163Z,27.30
2023-02-04T09:43:21.301Z,30.80
2023-02-04T09:45:50.817Z,30.37
2023-02-04T09:48:19.705Z,30.40
2023-02-04T09:50:49.518Z,31.37
2023-02-04T09:53:22.488Z,32.10
2023-02-04T09:55:52.292Z,29.83
2023-02-04T09:58:21.884Z,32.63
2023-02-04T10:00:57.772Z,36.10
2023-02-04T10:03:25.853Z,38.17
2023-02-04T10:05:55.345Z,38.67
2023-02-04T10:08:29.793Z,37.13
2023-02-04T10:10:58.280Z,31.67
2023-02-04T10:13:32.724Z,34.50
2023-02-04T10:16:02.331Z,38.10
2023-02-04T10:18:33.695Z,37.27
2023-02-04T10:21:15.564Z,34.57
2023-02-04T10:23:45.449Z,34.80
2023-02-04T10:26:13.882Z,32.93
2023-02-04T10:28:42.853Z,33.10
2023-02-04T10:31:36.091Z,33.43
2023-02-04T10:34:10.712Z,33.33
2023-02-04T10:36:40.963Z,29.50
2023-02-04T10:39:13.979Z,30.90
2023-02-04T10:41:49.658Z,26.33
2023-02-04T10:44:19.968Z,28.57
2023-02-04T10:46:48.412Z,24.67
2023-02-04T10:49:21.910Z,25.27
2023-02-04T10:51:52.798Z,25.30
2023-02-04T10:54:30.037Z,22.63
2023-02-04T10:56:59.275Z,22.27
2023-02-04T10:59:29.074Z,18.13
2023-02-04T11:01:59.009Z,21.43
2023-02-04T11:04:28.815Z,20.80
2023-02-04T11:06:58.234Z,21.17
2023-02-04T11:09:26.373Z,20.83
2023-02-04T11:11:54.414Z,20.00
2023-02-04T11:14:29.137Z,16.07
2023-02-04T11:17:00.841Z,17.63
2023-02-04T11:19:38.582Z,16.60
2023-02-04T11:22:21.758Z,15.80
2023-02-04T11:24:50.341Z,16.33
2023-02-04T11:27:24.386Z,16.83
2023-02-04T11:29:52.561Z,16.10
2023-02-04T11:32:37.827Z,14.50
2023-02-04T11:35:23.630Z,18.23
2023-02-04T11:37:54.550Z,15.30
2023-02-04T11:40:32.349Z,15.40
2023-02-04T11:43:10.234Z,14.90
2023-02-04T11:45:39.752Z,15.03
2023-02-04T11:48:14.363Z,14.13
2023-02-04T11:50:42.936Z,12.00
2023-02-04T11:53:13.226Z,13.10
2023-02-04T11:55:47.724Z,13.53
2023-02-04T11:58:17.732Z,12.30
2023-02-04T12:00:46.251Z,13.30
2023-02-04T12:03:26.597Z,15.03
2023-02-04T12:05:56.129Z,13.90
2023-02-04T12:08:33.487Z,13.90
2023-02-04T12:11:08.346Z,13.30
2023-02-04T12:13:47.377Z,13.40
2023-02-04T12:16:15.848Z,14.43
2023-02-04T12:18:44.286Z,13.90
2023-02-04T12:21:12.368Z,14.67
2023-02-04T12:23:43.074Z,14.50
2023-02-04T12:26:11.234Z,11.83
2023-02-04T12:28:39.405Z,12.40
2023-02-04T12:31:07.595Z,11.50
2023-02-04T12:33:35.774Z,10.53
2023-02-04T12:36:04.658Z,10.60
2023-02-04T12:38:32.724Z,8.37
2023-02-04T12:41:02.112Z,9.30
2023-02-04T12:43:30.316Z,9.13
2023-02-04T12:45:58.364Z,9.57
2023-02-04T12:48:26.993Z,9.90
2023-02-04T12:50:55.299Z,9.27
2023-02-04T12:53:23.612Z,10.90
2023-02-04T12:55:51.654Z,11.90
2023-02-04T12:58:21.092Z,11.90
2023-02-04T13:00:49.160Z,9.77
2023-02-04T13:03:17.922Z,8.90
2023-02-04T13:05:46.013Z,8.13
2023-02-04T13:08:14.140Z,7.90
2023-02-04T13:10:42.866Z,8.63
2023-02-04T13:13:10.996Z,8.77
2023-02-04T13:15:41.133Z,8.10
2023-02-04T13:18:09.339Z,9.03
2023-02-04T13:20:37.385Z,7.40
2023-02-04T13:23:05.535Z,8.70
2023-02-04T13:25:33.908Z,8.87
2023-02-04T13:28:02.267Z,9.10
2023-02-04T13:30:30.353Z,9.50
2023-02-04T13:33:00.226Z,8.90
2023-02-04T13:35:28.258Z,9.50
2023-02-04T13:37:56.656Z,11.10
2023-02-04T13:40:24.750Z,9.50
2023-02-04T13:42:52.775Z,9.80
2023-02-04T13:45:21.144Z,9.50
2023-02-04T13:47:49.288Z,10.73
2023-02-04T13:50:19.115Z,11.10
2023-02-04T13:52:47.233Z,11.40
2023-02-04T13:55:15.713Z,11.17
2023-02-04T13:57:43.781Z,12.23
2023-02-04T14:00:13.220Z,10.97
2023-02-04T14:02:41.250Z,13.50
2023-02-04T14:05:09.651Z,12.70
2023-02-04T14:07:39.049Z,12.70
2023-02-04T14:10:07.841Z,13.57
2023-02-04T14:12:35.990Z,13.17
2023-02-04T14:15:04.340Z,13.13
2023-02-04T14:17:32.360Z,13.33
2023-02-04T14:20:00.444Z,14.10
2023-02-04T14:22:28.485Z,14.77
2023-02-04T14:24:58.450Z,15.03
2023-02-04T14:27:27.284Z,15.27
2023-02-04T14:29:55.368Z,14.70
2023-02-04T14:32:23.442Z,14.37
2023-02-04T14:34:51.591Z,14.90
2023-02-04T14:37:19.611Z,15.17
2023-02-04T14:39:47.647Z,15.23
2023-02-04T14:42:17.062Z,16.80
2023-02-04T14:44:45.116Z,52.80
2023-02-04T14:47:13.233Z,60.07
2023-02-04T14:49:41.270Z,60.27
2023-02-04T14:52:11.351Z,60.03
2023-02-04T14:54:40.663Z,61.50
2023-02-04T14:57:11.309Z,60.87
2023-02-04T14:59:40.778Z,64.50
2023-02-04T15:02:08.995Z,65.70
2023-02-04T15:04:37.305Z,65.53
2023-02-04T15:07:05.357Z,64.60
2023-02-04T15:09:33.523Z,60.97
2023-02-04T15:12:01.933Z,66.23
2023-02-04T15:14:30.197Z,64.80
2023-02-04T15:16:59.669Z,61.87
2023-02-04T15:19:27.749Z,61.73
2023-02-04T15:21:55.770Z,58.73
2023-02-04T15:24:26.221Z,60.60
2023-02-04T15:26:54.265Z,59.77
2023-02-04T15:29:22.402Z,56.57
2023-02-04T15:31:50.779Z,59.17
2023-02-04T15:34:20.402Z,63.53
2023-02-04T15:36:48.520Z,66.63
2023-02-04T15:39:16.935Z,65.57
2023-02-04T15:41:44.986Z,66.00
2023-02-04T15:44:13.170Z,62.07
2023-02-04T15:46:41.195Z,63.90
2023-02-04T15:49:09.463Z,62.50
2023-02-04T15:51:38.881Z,59.37
2023-02-04T15:54:07.022Z,60.60
2023-02-04T15:56:35.090Z,59.60
2023-02-04T15:59:03.200Z,61.60
2023-02-04T16:01:31.372Z,56.40
2023-02-04T16:04:00.747Z,61.10
2023-02-04T16:06:28.848Z,61.00
2023-02-04T16:08:58.263Z,59.37
2023-02-04T16:11:26.405Z,58.47
2023-02-04T16:13:54.511Z,50.63
2023-02-04T16:16:22.630Z,53.53
2023-02-04T16:18:50.764Z,55.30
2023-02-04T16:21:18.786Z,50.93
2023-02-04T16:23:47.340Z,53.40
2023-02-04T16:26:16.733Z,54.93
2023-02-04T16:28:47.280Z,54.40
2023-02-04T16:31:15.694Z,54.27
2023-02-04T16:33:43.856Z,51.83
2023-02-04T16:36:13.698Z,53.57
2023-02-04T16:38:42.890Z,52.13
2023-02-04T16:41:14.204Z,49.73
2023-02-04T16:43:43.950Z,46.90
2023-02-04T16:46:15.073Z,46.27
2023-02-04T16:48:43.447Z,47.10
2023-02-04T16:51:11.774Z,48.13
2023-02-04T16:53:40.013Z,47.33
2023-02-04T16:56:08.502Z,49.23
2023-02-04T16:58:36.632Z,46.40
2023-02-04T17:01:06.511Z,48.63
2023-02-04T17:03:34.628Z,49.20
2023-02-04T17:06:02.778Z,50.17
2023-02-04T17:08:30.862Z,45.47
2023-02-04T17:11:16.519Z,51.37
2023-02-04T17:13:44.630Z,45.60
2023-02-04T17:16:14.485Z,46.50
2023-02-04T17:18:42.612Z,48.53
2023-02-04T17:21:10.682Z,45.90
2023-02-04T17:23:38.993Z,47.50
2023-02-04T17:26:07.066Z,49.07
2023-02-04T17:28:35.138Z,50.30
2023-02-04T17:31:03.275Z,54.30
2023-02-04T17:33:33.079Z,53.57
2023-02-04T17:36:01.210Z,53.23
2023-02-04T17:38:30.351Z,51.57
2023-02-04T17:40:58.501Z,52.77
2023-02-04T17:43:26.810Z,55.00
2023-02-04T17:45:54.876Z,54.97
2023-02-04T17:48:23.079Z,56.60
2023-02-04T17:50:53.309Z,58.40
2023-02-04T17:53:21.674Z,59.63
2023-02-04T17:55:49.716Z,59.97
2023-02-04T17:58:21.964Z,59.07
2023-02-04T18:00:51.065Z,58.00
2023-02-04T18:03:22.181Z,58.30
2023-02-04T18:05:53.306Z,55.23
2023-02-04T18:08:24.535Z,60.20
2023-02-04T18:10:54.320Z,57.23
2023-02-04T18:13:24.520Z,58.40
2023-02-04T18:15:54.175Z,60.00
2023-02-04T18:18:24.676Z,60.40
2023-02-04T18:21:00.312Z,58.23
2023-02-04T18:23:30.602Z,62.77
2023-02-04T18:26:06.244Z,60.37
2023-02-04T18:28:36.734Z,60.70
2023-02-04T18:31:19.741Z,56.33
2023-02-04T18:33:48.263Z,61.23
2023-02-04T18:36:23.074Z,57.27
2023-02-04T18:38:51.628Z,57.43
2023-02-04T18:41:33.910Z,55.50
2023-02-04T18:44:17.708Z,52.17
2023-02-04T18:46:48.869Z,54.90
2023-02-04T18:49:25.625Z,55.87
2023-02-04T18:51:55.932Z,53.40
2023-02-04T18:54:37.380Z,53.10
2023-02-04T18:57:28.988Z,59.33
2023-02-04T19:00:18.888Z,51.57
2023-02-04T19:02:50.594Z,53.30
2023-02-04T19:05:28.435Z,56.27
2023-02-04T19:08:26.468Z,50.77
2023-02-04T19:10:56.333Z,51.93
2023-02-04T19:13:27.413Z,50.80
2023-02-04T19:16:01.206Z,49.27
2023-02-04T19:18:31.300Z,47.83
2023-02-04T19:21:23.358Z,49.60
2023-02-04T19:23:57.966Z,49.13
2023-02-04T19:26:36.583Z,46.03
2023-02-04T19:29:38.516Z,45.30
2023-02-04T19:32:24.532Z,41.00
2023-02-04T19:34:53.971Z,41.50
2023-02-04T19:37:26.500Z,40.30
2023-02-04T19:39:56.831Z,41.67
2023-02-04T19:42:30.269Z,40.87
2023-02-04T19:45:00.436Z,34.87
2023-02-04T19:47:30.731Z,34.93
2023-02-04T19:50:22.358Z,33.23
2023-02-04T19:52:52.931Z,28.53
2023-02-04T19:55:27.318Z,28.73
2023-02-04T19:57:58.567Z,27.27
2023-02-04T20:00:46.744Z,16.73
2023-02-04T20:03:42.527Z,10.17
2023-02-04T20:06:30.967Z,7.30
2023-02-04T20:09:01.713Z,5.60
2023-02-04T20:11:56.944Z,5.20
2023-02-04T20:14:36.574Z,5.10
2023-02-04T20:17:16.050Z,4.60
2023-02-04T20:19:44.095Z,3.27
2023-02-04T20:22:46.625Z,3.03
2023-02-04T20:25:43.701Z,3.07
2023-02-04T20:28:38.410Z,3.53
2023-02-04T20:31:28.586Z,3.27
2023-02-04T20:33:59.307Z,3.77
2023-02-04T20:36:48.373Z,3.53
2023-02-04T20:39:34.179Z,2.73
2023-02-04T20:42:30.787Z,2.80
2023-02-04T20:45:13.987Z,2.80
2023-02-04T20:47:42.016Z,3.30
2023-02-04T20:50:44.529Z,4.00
2023-02-04T20:53:24.692Z,4.00
2023-02-04T20:55:55.393Z,4.33
2023-02-04T20:58:25.647Z,3.00
2023-02-04T21:00:56.571Z,2.77
2023-02-04T21:03:27.806Z,3.97
2023-02-04T21:05:57.391Z,3.27
2023-02-04T21:08:37.194Z,2.37
2023-02-04T21:11:05.716Z,3.07
2023-02-04T21:13:34.205Z,3.10
2023-02-04T21:16:04.153Z,3.20
2023-02-04T21:18:34.507Z,3.00
2023-02-04T21:21:03.069Z,3.53
2023-02-04T21:23:31.223Z,2.90
2023-02-04T21:25:59.256Z,2.30
2023-02-04T21:28:27.422Z,3.20
2023-02-04T21:30:55.626Z,2.90
2023-02-04T21:33:25.113Z,2.53
2023-02-04T21:35:53.210Z,2.63
2023-02-04T21:38:21.352Z,3.00
2023-02-04T21:40:49.657Z,2.60
2023-02-04T21:43:17.778Z,2.33
2023-02-04T21:45:45.862Z,2.70
2023-02-04T21:48:14.802Z,2.70
2023-02-04T21:50:44.310Z,2.50
2023-02-04T21:53:12.757Z,3.43
2023-02-04T21:55:40.998Z,3.10
2023-02-04T21:58:09.159Z,2.43
2023-02-04T22:00:37.195Z,3.27
2023-02-04T22:03:06.177Z,3.47
2023-02-04T22:05:34.937Z,2.90
2023-02-04T22:08:04.661Z,3.10
2023-02-04T22:10:32.701Z,3.30
2023-02-04T22:13:00.899Z,2.70
2023-02-04T22:15:29.187Z,2.87
2023-02-04T22:17:57.379Z,2.23
2023-02-04T22:20:26.018Z,3.40
2023-02-04T22:22:54.461Z,2.33
2023-02-04T22:25:24.169Z,2.97
2023-02-04T22:27:52.238Z,3.07
2023-02-04T22:30:20.989Z,2.73
2023-02-04T22:32:49.096Z,2.60
2023-02-04T22:35:17.481Z,2.23
2023-02-04T22:37:45.528Z,2.63
2023-02-04T22:40:13.926Z,2.40
2023-02-04T22:42:43.317Z,2.70
2023-02-04T22:45:11.702Z,2.30
2023-02-04T22:47:39.869Z,3.97
2023-02-04T22:50:09.348Z,3.77
2023-02-04T22:52:37.447Z,4.07
2023-02-04T22:55:06.051Z,3.50
2023-02-04T22:57:34.109Z,3.37
2023-02-04T23:00:05.805Z,3.20
2023-02-04T23:02:33.871Z,3.03
2023-02-04T23:05:01.927Z,3.30
2023-02-04T23:07:30.116Z,2.73
2023-02-04T23:09:58.242Z,3.60
2023-02-04T23:12:26.660Z,3.17
2023-02-04T23:14:54.761Z,3.00
2023-02-04T23:17:24.248Z,3.23
2023-02-04T23:19:52.301Z,3.53
2023-02-04T23:22:20.386Z,2.80
2023-02-04T23:24:49.514Z,3.83
2023-02-04T23:27:17.839Z,3.43
2023-02-04T23:29:45.950Z,3.47
2023-02-04T23:32:13.953Z,4.30
2023-02-04T23:34:43.383Z,3.73
2023-02-04T23:37:11.406Z,3.73
2023-02-04T23:39:39.498Z,3.30
2023-02-04T23:42:07.638Z,4.00
2023-02-04T23:44:35.764Z,3.80
2023-02-04T23:47:03.806Z,3.33
2023-02-04T23:49:31.873Z,3.20
2023-02-04T23:52:01.826Z,3.50
2023-02-04T23:54:30.059Z,3.40
2023-02-04T23:56:58.185Z,2.87
2023-02-04T23:59:26.486Z,4.13
